createdAt,value
2022-09-06T00:02:20.357Z,2.08
2022-09-06T00:04:48.193Z,1.95
2022-09-06T00:07:16.116Z,1.83
2022-09-06T00:09:45.287Z,2.10
2022-09-06T00:12:13.153Z,2.00
2022-09-06T00:14:41.017Z,2.45
2022-09-06T00:17:08.864Z,2.05
2022-09-06T00:19:36.837Z,2.22
2022-09-06T00:22:04.651Z,2.10
2022-09-06T00:24:32.470Z,2.22
2022-09-06T00:27:01.670Z,2.50
2022-09-06T00:29:29.452Z,2.10
2022-09-06T00:31:57.813Z,1.90
2022-09-06T00:34:25.686Z,1.90
2022-09-06T00:36:53.673Z,1.90
2022-09-06T00:39:21.489Z,2.10
2022-09-06T00:41:49.530Z,2.28
2022-09-06T00:44:18.676Z,2.10
2022-09-06T00:46:49.209Z,2.50
2022-09-06T00:49:24.284Z,2.50
2022-09-06T00:51:54.707Z,2.67
2022-09-06T00:54:22.753Z,2.58
2022-09-06T00:56:51.525Z,2.60
2022-09-06T00:59:20.738Z,2.72
2022-09-06T01:01:48.910Z,2.60
2022-09-06T01:04:17.173Z,2.55
2022-09-06T01:06:51.942Z,2.90
2022-09-06T01:09:33.989Z,3.08
2022-09-06T01:12:15.791Z,3.20
2022-09-06T01:14:59.557Z,3.35
2022-09-06T01:17:33.354Z,4.15
2022-09-06T01:20:28.887Z,4.75
2022-09-06T01:23:21.281Z,5.28
2022-09-06T01:26:05.925Z,4.85
2022-09-06T01:28:38.479Z,4.47
2022-09-06T01:31:18.118Z,3.60
2022-09-06T01:33:54.694Z,4.15
2022-09-06T01:36:28.093Z,4.15
2022-09-06T01:38:55.931Z,3.78
2022-09-06T01:41:23.763Z,3.88
2022-09-06T01:43:54.575Z,4.60
2022-09-06T01:46:35.106Z,4.30
2022-09-06T01:49:31.071Z,4.00
2022-09-06T01:52:10.528Z,3.80
2022-09-06T01:54:52.476Z,3.40
2022-09-06T01:57:34.979Z,3.63
2022-09-06T02:00:08.584Z,3.40
2022-09-06T02:02:56.151Z,2.95
2022-09-06T02:05:29.641Z,3.42
2022-09-06T02:08:01.400Z,3.33
2022-09-06T02:10:35.311Z,3.60
2022-09-06T02:13:06.881Z,3.30
2022-09-06T02:15:40.367Z,3.30
2022-09-06T02:18:14.001Z,3.08
2022-09-06T02:20:46.929Z,3.50
2022-09-06T02:23:17.577Z,3.88
2022-09-06T02:25:52.216Z,3.42
2022-09-06T02:28:20.533Z,3.33
2022-09-06T02:30:54.719Z,3.40
2022-09-06T02:33:28.068Z,3.42
2022-09-06T02:35:56.799Z,3.90
2022-09-06T02:38:26.142Z,3.60
2022-09-06T02:40:55.376Z,3.63
2022-09-06T02:43:23.352Z,3.63
2022-09-06T02:45:52.564Z,3.22
2022-09-06T02:48:20.419Z,3.28
2022-09-06T02:50:48.267Z,3.08
2022-09-06T02:53:17.564Z,3.28
2022-09-06T02:55:47.406Z,3.13
2022-09-06T02:58:16.255Z,2.83
2022-09-06T03:00:44.965Z,3.13
2022-09-06T03:03:14.758Z,2.80
2022-09-06T03:05:42.791Z,3.20
2022-09-06T03:08:10.695Z,4.43
2022-09-06T03:10:38.781Z,3.30
2022-09-06T03:13:06.669Z,3.35
2022-09-06T03:15:34.500Z,3.50
2022-09-06T03:18:02.396Z,3.65
2022-09-06T03:20:36.400Z,5.07
2022-09-06T03:23:05.460Z,3.85
2022-09-06T03:25:33.259Z,3.22
2022-09-06T03:28:01.185Z,3.90
2022-09-06T03:30:29.221Z,3.78
2022-09-06T03:32:59.811Z,3.97
2022-09-06T03:35:32.047Z,3.60
2022-09-06T03:37:59.880Z,3.67
2022-09-06T03:40:27.915Z,10.70
2022-09-06T03:42:55.776Z,6.13
2022-09-06T03:45:23.789Z,4.20
2022-09-06T03:47:51.624Z,4.05
2022-09-06T03:50:19.417Z,9.98
2022-09-06T03:52:48.595Z,4.93
2022-09-06T03:55:16.608Z,4.90
2022-09-06T03:57:44.395Z,5.40
2022-09-06T04:00:14.002Z,4.43
2022-09-06T04:02:42.005Z,3.33
2022-09-06T04:05:10.709Z,4.00
2022-09-06T04:07:38.680Z,3.70
2022-09-06T04:10:08.901Z,4.15
2022-09-06T04:12:36.755Z,3.70
2022-09-06T04:15:05.025Z,3.60
2022-09-06T04:17:32.782Z,3.72
2022-09-06T04:20:00.616Z,4.40
2022-09-06T04:22:28.434Z,4.28
2022-09-06T04:24:56.249Z,4.30
2022-09-06T04:27:25.447Z,4.00
2022-09-06T04:29:53.325Z,3.80
2022-09-06T04:32:21.341Z,3.95
2022-09-06T04:34:49.237Z,4.28
2022-09-06T04:37:19.990Z,4.18
2022-09-06T04:39:48.100Z,4.35
2022-09-06T04:42:16.709Z,4.30
2022-09-06T04:44:45.845Z,3.97
2022-09-06T04:47:16.026Z,3.88
2022-09-06T04:49:43.979Z,4.90
2022-09-06T04:52:12.398Z,5.05
2022-09-06T04:54:40.348Z,4.30
2022-09-06T04:57:08.190Z,5.05
2022-09-06T04:59:36.465Z,5.00
2022-09-06T05:02:06.018Z,4.78
2022-09-06T05:04:33.864Z,4.40
2022-09-06T05:07:03.263Z,5.15
2022-09-06T05:09:31.433Z,5.60
2022-09-06T05:11:59.776Z,5.28
2022-09-06T05:14:27.655Z,4.63
2022-09-06T05:16:56.088Z,5.18
2022-09-06T05:19:25.429Z,4.80
2022-09-06T05:21:53.349Z,4.80
2022-09-06T05:24:21.188Z,4.20
2022-09-06T05:26:49.183Z,4.32
2022-09-06T05:29:17.026Z,3.75
2022-09-06T05:31:44.931Z,3.65
2022-09-06T05:34:13.458Z,3.50
2022-09-06T05:36:42.677Z,3.58
2022-09-06T05:39:10.518Z,3.40
2022-09-06T05:41:38.340Z,3.55
2022-09-06T05:44:06.697Z,3.47
2022-09-06T05:46:34.519Z,3.35
2022-09-06T05:49:07.726Z,3.30
2022-09-06T05:51:35.560Z,3.50
2022-09-06T05:54:05.021Z,3.67
2022-09-06T05:56:32.992Z,2.97
2022-09-06T05:59:00.764Z,3.20
2022-09-06T06:01:30.704Z,2.58
2022-09-06T06:04:00.390Z,2.80
2022-09-06T06:06:32.364Z,2.95
2022-09-06T06:09:00.762Z,2.63
2022-09-06T06:11:31.247Z,2.90
2022-09-06T06:13:59.928Z,2.88
2022-09-06T06:16:27.823Z,3.20
2022-09-06T06:18:56.003Z,3.10
2022-09-06T06:21:26.326Z,3.10
2022-09-06T06:23:55.832Z,3.05
2022-09-06T06:26:25.503Z,3.15
2022-09-06T06:28:55.543Z,3.25
2022-09-06T06:31:23.881Z,3.00
2022-09-06T06:33:52.162Z,2.80
2022-09-06T06:36:22.547Z,2.80
2022-09-06T06:38:52.178Z,2.90
2022-09-06T06:41:23.907Z,2.95
2022-09-06T06:43:54.083Z,2.90
2022-09-06T06:46:23.345Z,2.40
2022-09-06T06:48:54.713Z,2.50
2022-09-06T06:51:25.193Z,2.30
2022-09-06T06:53:53.281Z,2.28
2022-09-06T06:56:23.067Z,1.90
2022-09-06T06:58:53.308Z,2.25
2022-09-06T07:01:24.045Z,2.38
2022-09-06T07:03:52.433Z,2.20
2022-09-06T07:06:21.449Z,2.03
2022-09-06T07:08:49.901Z,1.90
2022-09-06T07:11:21.596Z,2.20
2022-09-06T07:13:52.282Z,1.90
2022-09-06T07:16:23.251Z,1.67
2022-09-06T07:18:52.593Z,1.92
2022-09-06T07:21:37.169Z,2.00
2022-09-06T07:24:08.328Z,1.98
2022-09-06T07:26:39.407Z,1.90
2022-09-06T07:29:08.873Z,1.88
2022-09-06T07:34:27.113Z,1.83
2022-09-06T07:36:55.171Z,1.80
2022-09-06T07:39:23.737Z,1.85
2022-09-06T07:41:52.118Z,1.75
2022-09-06T07:44:20.092Z,1.70
2022-09-06T07:46:49.358Z,1.80
2022-09-06T07:49:17.262Z,1.90
2022-09-06T07:51:45.127Z,1.90
2022-09-06T07:54:29.991Z,1.60
2022-09-06T07:56:59.058Z,1.90
2022-09-06T07:59:27.472Z,1.70
2022-09-06T08:01:56.710Z,1.42
2022-09-06T08:04:24.729Z,1.70
2022-09-06T08:09:40.571Z,1.50
2022-09-06T08:12:09.509Z,1.42
2022-09-06T08:14:37.620Z,1.50
2022-09-06T08:17:06.834Z,1.40
2022-09-06T08:19:35.581Z,1.50
2022-09-06T08:22:03.525Z,1.50
2022-09-06T08:24:31.684Z,1.35
2022-09-06T08:26:59.552Z,1.30
2022-09-06T08:29:27.918Z,1.10
2022-09-06T08:31:55.790Z,0.70
2022-09-06T08:34:25.085Z,0.90
2022-09-06T08:36:52.901Z,0.80
2022-09-06T08:39:20.707Z,0.80
2022-09-06T08:41:53.194Z,0.90
2022-09-06T08:47:13.746Z,1.10
2022-09-06T08:49:45.189Z,0.80
2022-09-06T08:52:45.342Z,0.90
2022-09-06T08:55:36.702Z,0.85
2022-09-06T08:58:26.171Z,0.90
2022-09-06T09:00:59.161Z,0.70
2022-09-06T09:03:33.329Z,0.65
2022-09-06T09:08:40.831Z,0.70
2022-09-06T09:11:14.712Z,0.77
2022-09-06T09:13:55.635Z,0.90
2022-09-06T09:16:24.416Z,0.70
2022-09-06T09:18:54.979Z,0.80
2022-09-06T09:21:30.744Z,0.90
2022-09-06T09:24:00.625Z,0.90
2022-09-06T09:26:33.791Z,1.00
2022-09-06T09:29:06.584Z,0.80
2022-09-06T09:31:36.477Z,0.82
2022-09-06T09:34:05.035Z,0.90
2022-09-06T09:36:34.624Z,1.10
2022-09-06T09:39:10.317Z,0.75
2022-09-06T09:41:42.990Z,1.00
2022-09-06T09:44:17.396Z,0.57
2022-09-06T09:46:45.636Z,1.00
2022-09-06T09:49:15.077Z,0.65
2022-09-06T09:51:46.321Z,0.60
2022-09-06T09:54:16.399Z,1.00
2022-09-06T09:56:48.313Z,0.80
2022-09-06T09:59:26.650Z,0.77
2022-09-06T10:01:57.394Z,0.68
2022-09-06T10:07:14.191Z,0.77
2022-09-06T10:09:44.057Z,0.93
2022-09-06T10:12:18.064Z,0.80
2022-09-06T10:14:48.849Z,0.57
2022-09-06T10:17:21.105Z,0.85
2022-09-06T10:19:49.068Z,0.75
2022-09-06T10:22:27.723Z,0.90
2022-09-06T10:25:20.474Z,0.88
2022-09-06T10:28:12.134Z,0.65
2022-09-06T10:30:46.958Z,1.10
2022-09-06T10:33:25.147Z,0.85
2022-09-06T10:35:54.027Z,0.70
2022-09-06T10:38:36.725Z,0.57
2022-09-06T10:41:24.103Z,0.90
2022-09-06T10:44:01.128Z,0.90
2022-09-06T10:46:30.227Z,0.90
2022-09-06T10:48:59.830Z,0.90
2022-09-06T10:51:35.438Z,0.80
2022-09-06T10:54:09.572Z,1.00
2022-09-06T10:56:44.331Z,0.80
2022-09-06T11:02:17.398Z,1.05
2022-09-06T11:07:41.224Z,0.80
2022-09-06T11:10:17.724Z,1.00
2022-09-06T11:12:51.477Z,0.98
2022-09-06T11:15:21.958Z,0.93
2022-09-06T11:17:55.260Z,1.05
2022-09-06T11:20:32.009Z,0.80
2022-09-06T11:23:29.179Z,0.90
2022-09-06T11:26:19.854Z,1.00
2022-09-06T11:28:53.333Z,1.10
2022-09-06T11:34:14.378Z,1.10
2022-09-06T11:36:47.821Z,1.00
2022-09-06T11:42:30.946Z,0.90
2022-09-06T11:45:17.961Z,0.80
2022-09-06T11:47:47.969Z,1.00
2022-09-06T11:50:47.594Z,1.20
2022-09-06T11:53:17.508Z,0.90
2022-09-06T11:55:46.923Z,0.70
2022-09-06T11:58:29.951Z,1.13
2022-09-06T12:01:37.060Z,0.90
2022-09-06T12:04:10.630Z,0.90
2022-09-06T12:06:41.449Z,0.90
2022-09-06T12:09:30.916Z,1.10
2022-09-06T12:12:00.141Z,1.10
2022-09-06T12:14:35.925Z,0.80
2022-09-06T12:17:30.703Z,0.90
2022-09-06T12:20:06.402Z,1.02
2022-09-06T12:23:04.521Z,1.08
2022-09-06T12:25:56.008Z,1.20
2022-09-06T12:28:32.880Z,1.00
2022-09-06T12:31:02.424Z,0.82
2022-09-06T12:33:33.076Z,1.00
2022-09-06T12:36:14.806Z,1.00
2022-09-06T12:38:55.371Z,1.20
2022-09-06T12:41:23.666Z,1.13
2022-09-06T12:43:51.792Z,1.17
2022-09-06T12:46:21.160Z,1.08
2022-09-06T12:49:01.601Z,1.10
2022-09-06T12:51:29.597Z,1.25
2022-09-06T12:53:59.823Z,1.30
2022-09-06T12:56:29.791Z,1.27
2022-09-06T12:59:19.309Z,0.98
2022-09-06T13:01:58.017Z,1.20
2022-09-06T13:04:32.173Z,1.20
2022-09-06T13:07:02.982Z,1.17
2022-09-06T13:09:32.689Z,1.20
2022-09-06T13:12:06.376Z,1.05
2022-09-06T13:14:36.072Z,1.25
2022-09-06T13:17:05.499Z,1.13
2022-09-06T13:19:36.182Z,1.05
2022-09-06T13:22:07.494Z,1.30
2022-09-06T13:24:47.350Z,1.20
2022-09-06T13:27:26.660Z,1.15
2022-09-06T13:29:59.864Z,1.10
2022-09-06T13:32:29.838Z,1.10
2022-09-06T13:34:59.894Z,1.17
2022-09-06T13:37:29.618Z,1.27
2022-09-06T13:39:58.917Z,1.00
2022-09-06T13:42:29.717Z,1.00
2022-09-06T13:45:01.990Z,0.93
2022-09-06T13:47:31.487Z,1.10
2022-09-06T13:49:59.410Z,0.98
2022-09-06T13:52:27.131Z,1.10
2022-09-06T13:54:54.886Z,0.95
2022-09-06T13:57:24.597Z,1.10
2022-09-06T13:59:52.553Z,1.05
2022-09-06T14:02:20.902Z,1.10
2022-09-06T14:04:50.082Z,1.00
2022-09-06T14:07:18.162Z,1.10
2022-09-06T14:09:47.407Z,1.10
2022-09-06T14:12:15.518Z,1.30
2022-09-06T14:14:44.542Z,1.00
2022-09-06T14:17:12.769Z,1.10
2022-09-06T14:19:41.337Z,1.20
2022-09-06T14:22:10.622Z,1.17
2022-09-06T14:24:39.202Z,1.17
2022-09-06T14:27:08.561Z,1.50
2022-09-06T14:29:37.082Z,1.30
2022-09-06T14:32:05.128Z,1.20
2022-09-06T14:34:32.913Z,1.30
2022-09-06T14:37:00.719Z,1.27
2022-09-06T14:39:30.105Z,1.02
2022-09-06T14:41:58.000Z,1.58
2022-09-06T14:44:25.970Z,1.30
2022-09-06T14:46:54.596Z,1.48
2022-09-06T14:49:22.703Z,1.35
2022-09-06T14:51:50.596Z,1.20
2022-09-06T14:54:20.160Z,1.10
2022-09-06T14:56:50.272Z,1.40
2022-09-06T14:59:18.128Z,1.33
2022-09-06T15:01:46.369Z,1.10
2022-09-06T15:04:14.308Z,2.10
2022-09-06T15:06:47.272Z,1.60
2022-09-06T15:09:16.298Z,1.50
2022-09-06T15:11:45.833Z,1.40
2022-09-06T15:14:17.142Z,1.42
2022-09-06T15:16:45.613Z,1.50
2022-09-06T15:19:13.569Z,1.38
2022-09-06T15:21:41.982Z,1.30
2022-09-06T15:24:12.157Z,1.30
2022-09-06T15:26:40.965Z,1.25
2022-09-06T15:29:09.104Z,1.00
2022-09-06T15:31:38.758Z,1.50
2022-09-06T15:34:07.794Z,1.90
2022-09-06T15:36:36.343Z,1.40
2022-09-06T15:39:06.011Z,1.40
2022-09-06T15:41:36.097Z,1.30
2022-09-06T15:44:09.557Z,1.33
2022-09-06T15:46:45.339Z,1.20
2022-09-06T15:49:15.627Z,1.50
2022-09-06T15:51:43.782Z,1.23
2022-09-06T15:54:13.932Z,1.50
2022-09-06T15:56:42.241Z,1.25
2022-09-06T15:59:10.753Z,1.63
2022-09-06T16:01:39.191Z,1.35
2022-09-06T16:04:08.721Z,1.45
2022-09-06T16:06:39.560Z,1.45
2022-09-06T16:09:10.130Z,1.52
2022-09-06T16:11:38.913Z,1.20
2022-09-06T16:14:09.116Z,1.42
2022-09-06T16:16:38.240Z,1.35
2022-09-06T16:19:06.227Z,1.50
2022-09-06T16:21:37.536Z,1.50
2022-09-06T16:24:07.698Z,1.38
2022-09-06T16:26:38.193Z,1.23
2022-09-06T16:29:07.817Z,1.40
2022-09-06T16:31:39.983Z,1.35
2022-09-06T16:34:08.847Z,1.80
2022-09-06T16:36:38.486Z,1.38
2022-09-06T16:39:07.587Z,1.60
2022-09-06T16:41:40.533Z,1.00
2022-09-06T16:44:09.496Z,1.40
2022-09-06T16:46:39.994Z,1.25
2022-09-06T16:49:08.076Z,1.40
2022-09-06T16:51:36.213Z,1.40
2022-09-06T16:54:05.760Z,1.27
2022-09-06T16:56:35.801Z,1.70
2022-09-06T16:59:06.822Z,1.52
2022-09-06T17:01:37.209Z,1.20
2022-09-06T17:04:06.729Z,1.38
2022-09-06T17:06:42.097Z,1.60
2022-09-06T17:09:11.609Z,2.42
2022-09-06T17:11:40.213Z,1.70
2022-09-06T17:14:08.283Z,1.52
2022-09-06T17:16:53.933Z,1.52
2022-09-06T17:19:22.320Z,1.40
2022-09-06T17:21:50.649Z,1.50
2022-09-06T17:24:19.976Z,1.88
2022-09-06T17:26:47.819Z,1.60
2022-09-06T17:29:16.005Z,1.60
2022-09-06T17:31:43.939Z,1.38
2022-09-06T17:34:11.813Z,1.30
2022-09-06T17:36:39.688Z,1.60
2022-09-06T17:39:10.022Z,2.35
2022-09-06T17:41:40.571Z,1.52
2022-09-06T17:44:14.149Z,1.73
2022-09-06T17:46:57.100Z,1.45
2022-09-06T17:49:31.358Z,1.67
2022-09-06T17:51:59.448Z,2.40
2022-09-06T17:54:27.944Z,1.63
2022-09-06T17:56:57.490Z,1.75
2022-09-06T17:59:25.428Z,1.60
2022-09-06T18:01:53.353Z,1.60
2022-09-06T18:04:21.247Z,1.60
2022-09-06T18:06:49.175Z,1.95
2022-09-06T18:09:17.949Z,1.80
2022-09-06T18:11:47.363Z,2.40
2022-09-06T18:14:20.615Z,2.70
2022-09-06T18:16:49.199Z,2.50
2022-09-06T18:19:17.607Z,2.10
2022-09-06T18:21:46.643Z,1.67
2022-09-06T18:24:14.704Z,1.92
2022-09-06T18:26:43.191Z,1.60
2022-09-06T18:29:15.141Z,1.40
2022-09-06T18:31:45.379Z,1.52
2022-09-06T18:34:13.598Z,1.50
2022-09-06T18:36:42.205Z,1.27
2022-09-06T18:39:11.234Z,1.45
2022-09-06T18:41:56.620Z,1.55
2022-09-06T18:44:24.721Z,1.60
2022-09-06T18:46:55.677Z,1.50
2022-09-06T18:49:23.619Z,1.40
2022-09-06T18:51:51.546Z,1.77
2022-09-06T18:54:20.250Z,1.58
2022-09-06T18:56:49.347Z,1.45
2022-09-06T18:59:19.562Z,1.70
2022-09-06T19:01:47.515Z,1.90
2022-09-06T19:04:16.865Z,1.67
2022-09-06T19:06:45.402Z,1.70
2022-09-06T19:09:15.745Z,1.63
2022-09-06T19:11:46.653Z,2.00
2022-09-06T19:14:15.165Z,1.90
2022-09-06T19:16:43.117Z,1.65
2022-09-06T19:19:11.746Z,1.60
2022-09-06T19:21:42.570Z,2.00
2022-09-06T19:24:12.174Z,1.55
2022-09-06T19:26:42.010Z,1.60
2022-09-06T19:29:13.871Z,1.80
2022-09-06T19:31:42.382Z,1.50
2022-09-06T19:34:12.135Z,1.33
2022-09-06T19:36:41.399Z,1.90
2022-09-06T19:39:13.155Z,1.80
2022-09-06T19:41:44.968Z,1.70
2022-09-06T19:44:13.590Z,1.70
2022-09-06T19:46:45.589Z,1.40
2022-09-06T19:49:15.685Z,1.52
2022-09-06T19:51:46.337Z,1.40
2022-09-06T19:54:15.422Z,1.48
2022-09-06T19:56:44.249Z,1.40
2022-09-06T19:59:13.219Z,1.60
2022-09-06T20:01:42.865Z,1.40
2022-09-06T20:04:12.471Z,1.40
2022-09-06T20:06:40.724Z,1.35
2022-09-06T20:09:11.329Z,1.33
2022-09-06T20:11:40.805Z,1.70
2022-09-06T20:14:09.872Z,1.40
2022-09-06T20:16:41.451Z,1.50
2022-09-06T20:19:09.969Z,1.55
2022-09-06T20:21:37.999Z,1.52
2022-09-06T20:24:06.611Z,1.48
2022-09-06T20:26:35.940Z,1.45
2022-09-06T20:29:04.885Z,1.38
2022-09-06T20:31:33.772Z,1.45
2022-09-06T20:34:04.209Z,1.55
2022-09-06T20:36:32.180Z,1.60
2022-09-06T20:39:00.278Z,1.63
2022-09-06T20:41:28.672Z,1.98
2022-09-06T20:43:59.690Z,1.50
2022-09-06T20:46:29.994Z,1.60
2022-09-06T20:48:59.779Z,1.50
2022-09-06T20:51:27.853Z,1.73
2022-09-06T20:53:56.919Z,2.10
2022-09-06T20:56:26.636Z,1.98
2022-09-06T20:58:57.832Z,1.92
2022-09-06T21:01:27.619Z,1.90
2022-09-06T21:03:57.776Z,2.10
2022-09-06T21:06:27.472Z,1.95
2022-09-06T21:08:56.240Z,1.90
2022-09-06T21:11:24.554Z,3.58
2022-09-06T21:13:55.726Z,4.00
2022-09-06T21:16:27.451Z,3.60
2022-09-06T21:18:57.275Z,2.90
2022-09-06T21:21:25.799Z,3.97
2022-09-06T21:23:54.070Z,2.58
2022-09-06T21:26:22.746Z,2.67
2022-09-06T21:28:50.961Z,2.28
2022-09-06T21:31:21.863Z,2.40
2022-09-06T21:33:53.724Z,2.70
2022-09-06T21:36:24.014Z,2.38
2022-09-06T21:38:55.398Z,2.30
2022-09-06T21:41:24.404Z,2.10
2022-09-06T21:43:53.633Z,2.25
2022-09-06T21:46:23.337Z,1.92
2022-09-06T21:48:54.981Z,2.40
2022-09-06T21:51:27.089Z,2.88
2022-09-06T21:53:55.901Z,2.90
2022-09-06T21:56:24.777Z,3.47
2022-09-06T21:58:55.286Z,3.55
2022-09-06T22:01:23.810Z,2.50
2022-09-06T22:03:53.743Z,2.25
2022-09-06T22:06:24.705Z,2.13
2022-09-06T22:08:54.029Z,1.63
2022-09-06T22:11:24.440Z,2.20
2022-09-06T22:13:52.901Z,1.80
2022-09-06T22:16:22.753Z,1.70
2022-09-06T22:18:51.485Z,2.00
2022-09-06T22:21:22.115Z,2.22
2022-09-06T22:23:53.869Z,2.13
2022-09-06T22:26:22.607Z,2.30
2022-09-06T22:28:54.955Z,2.17
2022-09-06T22:31:23.775Z,2.72
2022-09-06T22:33:51.874Z,1.88
2022-09-06T22:36:21.902Z,2.08
2022-09-06T22:38:52.987Z,2.40
2022-09-06T22:41:20.876Z,2.15
2022-09-06T22:43:48.697Z,2.00
2022-09-06T22:46:16.644Z,1.98
2022-09-06T22:48:44.549Z,2.10
2022-09-06T22:51:12.891Z,2.00
2022-09-06T22:53:42.060Z,2.65
2022-09-06T22:56:09.966Z,1.77
2022-09-06T22:58:37.975Z,2.08
2022-09-06T23:01:08.853Z,1.88
2022-09-06T23:03:36.942Z,1.83
2022-09-06T23:06:05.744Z,1.90
2022-09-06T23:08:35.424Z,2.00
2022-09-06T23:11:08.023Z,2.03
2022-09-06T23:13:35.918Z,2.30
2022-09-06T23:16:05.280Z,2.40
2022-09-06T23:18:33.466Z,2.42
2022-09-06T23:21:06.138Z,2.40
2022-09-06T23:23:34.319Z,2.40
2022-09-06T23:26:08.776Z,2.30
2022-09-06T23:28:37.231Z,1.60
2022-09-06T23:31:06.017Z,1.45
2022-09-06T23:33:37.316Z,1.20
2022-09-06T23:36:06.253Z,0.90
2022-09-06T23:38:34.866Z,0.75
2022-09-06T23:41:03.237Z,0.90
2022-09-06T23:43:33.102Z,0.88
2022-09-06T23:46:01.177Z,1.30
2022-09-06T23:48:29.258Z,1.02
2022-09-06T23:50:57.177Z,1.23
2022-09-06T23:53:25.052Z,2.83
2022-09-06T23:55:53.024Z,2.25
2022-09-06T23:58:21.015Z,1.40
